createdAt,value
2022-10-06T00:01:31.750Z,97635.72
2022-10-06T00:03:59.872Z,97626.09
2022-10-06T00:06:27.966Z,97634.72
2022-10-06T00:08:56.194Z,97634.50
2022-10-06T00:11:24.148Z,97639.59
2022-10-06T00:13:52.196Z,97641.06
2022-10-06T00:16:23.551Z,97639.16
2022-10-06T00:18:53.271Z,97634.50
2022-10-06T00:21:21.319Z,97636.06
2022-10-06T00:23:49.594Z,97640.25
2022-10-06T00:26:17.746Z,97641.88
2022-10-06T00:28:48.463Z,97638.19
2022-10-06T00:31:17.355Z,97639.22
2022-10-06T00:33:45.929Z,97645.75
2022-10-06T00:36:16.837Z,97644.16
2022-10-06T00:38:44.836Z,97642.34
2022-10-06T00:41:14.664Z,97642.44
2022-10-06T00:43:49.000Z,97641.94
2022-10-06T00:46:23.146Z,97652.75
2022-10-06T00:48:56.548Z,97656.94
2022-10-06T00:51:27.533Z,97647.91
2022-10-06T00:53:56.036Z,97654.22
2022-10-06T00:56:24.033Z,97662.41
2022-10-06T00:58:52.115Z,97657.84
2022-10-06T01:01:20.532Z,97658.03
2022-10-06T01:03:54.470Z,97643.88
2022-10-06T01:06:22.469Z,97642.81
2022-10-06T01:08:53.056Z,97648.13
2022-10-06T01:11:21.178Z,97650.59
2022-10-06T01:13:49.507Z,97651.38
2022-10-06T01:16:22.678Z,97646.63
2022-10-06T01:18:51.062Z,97645.13
2022-10-06T01:21:27.234Z,97645.94
2022-10-06T01:23:57.218Z,97642.91
2022-10-06T01:26:28.190Z,97649.72
2022-10-06T01:28:56.711Z,97643.19
2022-10-06T01:31:25.939Z,97645.22
2022-10-06T01:33:55.272Z,97643.22
2022-10-06T01:36:23.947Z,97650.88
2022-10-06T01:38:52.845Z,97644.59
2022-10-06T01:41:22.610Z,97648.44
2022-10-06T01:43:51.153Z,97644.72
2022-10-06T01:46:19.283Z,97642.97
2022-10-06T01:48:47.352Z,97644.19
2022-10-06T01:51:17.714Z,97639.09
2022-10-06T01:53:45.780Z,97652.06
2022-10-06T01:56:14.920Z,97648.13
2022-10-06T01:58:45.105Z,97642.25
2022-10-06T02:01:13.731Z,97647.53
2022-10-06T02:03:42.445Z,97647.28
2022-10-06T02:06:12.330Z,97651.13
2022-10-06T02:08:43.143Z,97652.84
2022-10-06T02:11:12.499Z,97665.59
2022-10-06T02:13:45.280Z,97659.31
2022-10-06T02:16:14.138Z,97653.25
2022-10-06T02:18:43.580Z,97653.50
2022-10-06T02:21:15.859Z,97659.19
2022-10-06T02:23:43.858Z,97658.44
2022-10-06T02:26:16.051Z,97659.75
2022-10-06T02:28:46.742Z,97674.28
2022-10-06T02:31:18.290Z,97666.44
2022-10-06T02:33:46.443Z,97675.59
2022-10-06T02:36:17.661Z,97672.06
2022-10-06T02:38:46.055Z,97669.41
2022-10-06T02:41:14.095Z,97669.41
2022-10-06T02:43:42.056Z,97669.41
2022-10-06T02:46:13.859Z,97688.59
2022-10-06T02:48:47.846Z,97684.75
2022-10-06T02:51:18.137Z,97682.50
2022-10-06T02:53:48.424Z,97694.00
2022-10-06T02:56:18.582Z,97700.66
2022-10-06T02:58:48.917Z,97704.16
2022-10-06T03:01:27.482Z,97706.81
2022-10-06T03:03:58.663Z,97697.25
2022-10-06T03:06:28.211Z,97705.44
2022-10-06T03:09:03.449Z,97711.47
2022-10-06T03:11:34.879Z,97716.81
2022-10-06T03:14:04.884Z,97720.31
2022-10-06T03:16:37.310Z,97729.81
2022-10-06T03:19:07.415Z,97734.63
2022-10-06T03:21:38.301Z,97735.63
2022-10-06T03:24:07.114Z,97745.06
2022-10-06T03:26:36.855Z,97746.06
2022-10-06T03:29:10.473Z,97751.50
2022-10-06T03:31:44.613Z,97747.03
2022-10-06T03:34:15.489Z,97747.03
2022-10-06T03:36:45.238Z,97746.69
2022-10-06T03:39:15.094Z,97755.50
2022-10-06T03:41:43.126Z,97752.03
2022-10-06T03:44:11.428Z,97745.50
2022-10-06T03:46:44.171Z,97759.38
2022-10-06T03:49:12.257Z,97750.56
2022-10-06T03:51:43.136Z,97745.31
2022-10-06T03:54:20.316Z,97721.44
2022-10-06T03:56:51.056Z,97725.03
2022-10-06T03:59:19.667Z,97719.50
2022-10-06T04:01:50.370Z,97738.84
2022-10-06T04:04:23.632Z,97737.31
2022-10-06T04:06:55.697Z,97737.97
2022-10-06T04:09:24.244Z,97750.88
2022-10-06T04:11:53.118Z,97754.31
2022-10-06T04:14:22.080Z,97749.97
2022-10-06T04:16:52.700Z,97754.44
2022-10-06T04:19:29.279Z,97765.66
2022-10-06T04:21:57.483Z,97763.25
2022-10-06T04:24:26.549Z,97765.66
2022-10-06T04:27:14.893Z,97769.56
2022-10-06T04:29:45.556Z,97773.25
2022-10-06T04:32:16.564Z,97780.59
2022-10-06T04:34:44.854Z,97788.00
2022-10-06T04:37:13.302Z,97787.69
2022-10-06T04:39:43.563Z,97792.94
2022-10-06T04:42:11.680Z,97802.44
2022-10-06T04:44:39.934Z,97788.41
2022-10-06T04:47:08.310Z,97802.56
2022-10-06T04:49:37.819Z,97805.47
2022-10-06T04:52:06.466Z,97813.38
2022-10-06T04:54:37.515Z,97806.63
2022-10-06T04:57:06.945Z,97809.94
2022-10-06T04:59:52.766Z,97808.16
2022-10-06T05:02:21.329Z,97810.38
2022-10-06T05:04:55.070Z,97816.50
2022-10-06T05:07:24.846Z,97817.91
2022-10-06T05:09:54.551Z,97821.22
2022-10-06T05:12:22.702Z,97828.91
2022-10-06T05:14:51.748Z,97837.63
2022-10-06T05:17:20.422Z,97830.13
2022-10-06T05:19:49.106Z,97834.03
2022-10-06T05:22:19.117Z,97839.63
2022-10-06T05:24:47.306Z,97838.50
2022-10-06T05:27:15.421Z,97833.19
2022-10-06T05:29:44.591Z,97833.91
2022-10-06T05:32:12.986Z,97852.66
2022-10-06T05:34:41.919Z,97854.56
2022-10-06T05:37:10.130Z,97867.94
2022-10-06T05:39:39.750Z,97857.50
2022-10-06T05:42:07.955Z,97876.97
2022-10-06T05:44:36.333Z,97873.84
2022-10-06T05:47:09.174Z,97871.06
2022-10-06T05:49:37.353Z,97878.78
2022-10-06T05:52:10.228Z,97884.19
2022-10-06T05:54:39.811Z,97895.28
2022-10-06T05:57:09.683Z,97893.91
2022-10-06T05:59:38.345Z,97893.25
2022-10-06T06:02:07.058Z,97903.25
2022-10-06T06:04:39.689Z,97907.59
2022-10-06T06:07:07.822Z,97910.59
2022-10-06T06:09:35.859Z,97911.88
2022-10-06T06:12:06.785Z,97921.91
2022-10-06T06:15:02.027Z,97926.75
2022-10-06T06:17:35.103Z,97926.75
2022-10-06T06:20:06.768Z,97929.34
2022-10-06T06:22:35.913Z,97937.41
2022-10-06T06:25:06.246Z,97935.66
2022-10-06T06:27:35.980Z,97942.22
2022-10-06T06:30:06.184Z,97949.34
2022-10-06T06:32:35.216Z,97949.28
2022-10-06T06:35:04.016Z,97958.06
2022-10-06T06:37:33.536Z,97963.41
2022-10-06T06:40:02.808Z,97967.06
2022-10-06T06:42:35.069Z,97966.38
2022-10-06T06:45:34.896Z,97974.84
2022-10-06T06:48:16.724Z,97976.44
2022-10-06T06:50:46.870Z,97982.91
2022-10-06T06:53:16.364Z,97984.69
2022-10-06T06:55:51.208Z,97993.44
2022-10-06T06:58:24.232Z,97991.59
2022-10-06T07:00:52.434Z,97991.22
2022-10-06T07:03:52.589Z,98005.19
2022-10-06T07:06:14.533Z,97997.19
2022-10-06T07:08:44.970Z,98000.75
2022-10-06T07:11:16.239Z,97995.19
2022-10-06T07:13:48.047Z,98005.22
2022-10-06T07:16:36.699Z,98016.16
2022-10-06T07:19:25.010Z,98021.97
2022-10-06T07:22:14.620Z,98024.53
2022-10-06T07:25:01.125Z,98031.47
2022-10-06T07:27:30.829Z,98038.19
2022-10-06T07:30:00.379Z,98037.16
2022-10-06T07:32:31.016Z,98045.53
2022-10-06T07:35:01.008Z,98060.81
2022-10-06T07:37:30.029Z,98066.03
2022-10-06T07:39:59.925Z,98075.31
2022-10-06T07:42:29.005Z,98090.81
2022-10-06T07:45:14.671Z,98106.56
2022-10-06T07:47:44.510Z,98108.97
2022-10-06T07:50:13.075Z,98123.16
2022-10-06T07:52:42.213Z,98124.84
2022-10-06T07:55:11.999Z,98130.88
2022-10-06T07:57:46.207Z,98141.44
2022-10-06T08:00:16.519Z,98156.28
2022-10-06T08:02:46.225Z,98168.72
2022-10-06T08:05:14.501Z,98180.84
2022-10-06T08:07:42.726Z,98182.91
2022-10-06T08:10:10.965Z,98194.91
2022-10-06T08:12:40.742Z,98200.16
2022-10-06T08:15:12.147Z,98203.53
2022-10-06T08:17:40.509Z,98208.63
2022-10-06T08:20:13.425Z,98226.38
2022-10-06T08:22:42.108Z,98230.19
2022-10-06T08:25:12.590Z,98230.78
2022-10-06T08:27:44.259Z,98226.66
2022-10-06T08:30:14.480Z,98238.06
2022-10-06T08:32:43.579Z,98244.00
2022-10-06T08:35:14.351Z,98249.16
2022-10-06T08:37:43.028Z,98255.03
2022-10-06T08:40:15.802Z,98252.78
2022-10-06T08:42:45.953Z,98261.06
2022-10-06T08:45:19.175Z,98256.44
2022-10-06T08:47:56.445Z,98268.09
2022-10-06T08:50:28.283Z,98270.13
2022-10-06T08:53:07.182Z,98268.81
2022-10-06T08:55:43.252Z,98272.56
2022-10-06T08:58:34.237Z,98274.91
2022-10-06T09:01:15.299Z,98266.13
2022-10-06T09:03:48.489Z,98274.09
2022-10-06T09:06:31.591Z,98278.94
2022-10-06T09:09:04.678Z,98269.13
2022-10-06T09:11:47.232Z,98270.53
2022-10-06T09:14:22.311Z,98271.63
2022-10-06T09:16:57.283Z,98272.00
2022-10-06T09:19:33.912Z,98259.59
2022-10-06T09:22:05.794Z,98262.63
2022-10-06T09:24:40.491Z,98275.22
2022-10-06T09:27:18.694Z,98282.16
2022-10-06T09:29:48.687Z,98273.97
2022-10-06T09:32:17.534Z,98285.06
2022-10-06T09:34:50.388Z,98285.94
2022-10-06T09:37:19.975Z,98289.38
2022-10-06T09:39:50.975Z,98294.69
2022-10-06T09:42:22.650Z,98302.06
2022-10-06T09:44:59.351Z,98301.00
2022-10-06T09:47:45.169Z,98298.88
2022-10-06T09:50:23.520Z,98309.84
2022-10-06T09:53:12.085Z,98304.19
2022-10-06T09:55:51.477Z,98305.81
2022-10-06T09:58:25.291Z,98307.97
2022-10-06T10:00:56.855Z,98313.41
2022-10-06T10:03:27.271Z,98310.53
2022-10-06T10:05:56.243Z,98292.06
2022-10-06T10:08:30.778Z,98302.69
2022-10-06T10:11:28.058Z,98311.66
2022-10-06T10:13:57.871Z,98307.50
2022-10-06T10:16:27.149Z,98297.94
2022-10-06T10:18:55.972Z,98298.03
2022-10-06T10:21:26.716Z,98296.31
2022-10-06T10:23:58.815Z,98311.41
2022-10-06T10:26:42.399Z,98313.22
2022-10-06T10:29:41.028Z,98315.09
2022-10-06T10:32:15.458Z,98319.78
2022-10-06T10:35:02.340Z,98316.94
2022-10-06T10:37:40.729Z,98319.09
2022-10-06T10:40:23.617Z,98314.66
2022-10-06T10:42:57.143Z,98312.50
2022-10-06T10:45:32.367Z,98318.38
2022-10-06T10:48:01.735Z,98317.34
2022-10-06T10:50:33.386Z,98331.72
2022-10-06T10:53:11.907Z,98328.75
2022-10-06T10:55:45.673Z,98338.50
2022-10-06T10:58:20.381Z,98339.25
2022-10-06T11:00:54.822Z,98349.47
2022-10-06T11:03:23.106Z,98341.09
2022-10-06T11:06:16.620Z,98348.47
2022-10-06T11:08:53.567Z,98343.16
2022-10-06T11:11:49.865Z,98346.34
2022-10-06T11:14:38.253Z,98358.59
2022-10-06T11:17:19.196Z,98352.84
2022-10-06T11:19:56.180Z,98351.66
2022-10-06T11:22:33.985Z,98352.41
2022-10-06T11:25:13.776Z,98353.25
2022-10-06T11:27:52.255Z,98349.53
2022-10-06T11:30:26.468Z,98354.59
2022-10-06T11:33:07.202Z,98346.00
2022-10-06T11:35:37.734Z,98343.00
2022-10-06T11:38:15.150Z,98350.56
2022-10-06T11:41:09.881Z,98343.91
2022-10-06T11:43:47.273Z,98337.22
2022-10-06T11:46:32.112Z,98344.06
2022-10-06T11:49:48.277Z,98342.81
2022-10-06T11:52:53.733Z,98344.53
2022-10-06T11:55:26.442Z,98344.44
2022-10-06T11:58:41.568Z,98357.66
2022-10-06T12:00:58.452Z,98354.25
2022-10-06T12:03:47.436Z,98349.06
2022-10-06T12:06:52.646Z,98356.31
2022-10-06T12:09:52.094Z,98351.94
2022-10-06T12:12:47.789Z,98347.34
2022-10-06T12:17:08.379Z,98343.16
2022-10-06T12:19:00.933Z,98339.59
2022-10-06T12:21:54.693Z,98347.47
2022-10-06T12:24:35.157Z,98350.94
2022-10-06T12:27:33.705Z,98355.81
2022-10-06T12:30:06.124Z,98353.81
2022-10-06T12:32:49.954Z,98347.31
2022-10-06T12:35:26.053Z,98351.97
2022-10-06T12:37:55.065Z,98346.41
2022-10-06T12:40:55.603Z,98346.16
2022-10-06T12:43:32.980Z,98343.09
2022-10-06T12:46:05.610Z,98348.72
2022-10-06T12:48:42.222Z,98348.53
2022-10-06T12:51:25.572Z,98353.25
2022-10-06T12:54:03.864Z,98349.78
2022-10-06T12:56:34.117Z,98353.84
2022-10-06T12:59:21.510Z,98350.84
2022-10-06T13:01:52.046Z,98353.53
2022-10-06T13:04:40.544Z,98354.28
2022-10-06T13:07:16.840Z,98351.53
2022-10-06T13:09:45.822Z,98352.97
2022-10-06T13:12:25.593Z,98354.50
2022-10-06T13:15:15.015Z,98355.81
2022-10-06T13:17:45.274Z,98350.31
2022-10-06T13:20:22.939Z,98357.00
2022-10-06T13:23:01.095Z,98361.59
2022-10-06T13:25:36.017Z,98356.59
2022-10-06T13:28:04.423Z,98357.59
2022-10-06T13:30:38.389Z,98354.13
2022-10-06T13:33:09.116Z,98362.09
2022-10-06T13:35:38.329Z,98355.69
2022-10-06T13:38:08.120Z,98366.75
2022-10-06T13:40:45.074Z,98368.69
2022-10-06T13:43:18.130Z,98361.66
2022-10-06T13:45:48.766Z,98359.44
2022-10-06T13:48:20.150Z,98367.41
2022-10-06T13:50:50.326Z,98365.19
2022-10-06T13:53:31.937Z,98380.53
2022-10-06T13:56:01.114Z,98373.50
2022-10-06T13:58:31.323Z,98375.91
2022-10-06T14:01:03.656Z,98381.88
2022-10-06T14:06:16.138Z,98381.03
2022-10-06T14:08:51.221Z,98377.16
2022-10-06T14:11:25.662Z,98370.03
2022-10-06T14:13:57.515Z,98373.69
2022-10-06T14:16:27.674Z,98368.91
2022-10-06T14:18:58.518Z,98376.25
2022-10-06T14:21:35.894Z,98373.75
2022-10-06T14:24:09.327Z,98383.59
2022-10-06T14:26:39.890Z,98387.88
2022-10-06T14:29:08.155Z,98389.13
2022-10-06T14:31:36.527Z,98387.47
2022-10-06T14:34:05.941Z,98389.13
2022-10-06T14:36:37.434Z,98386.31
2022-10-06T14:39:08.301Z,98385.69
2022-10-06T14:41:36.534Z,98385.97
2022-10-06T14:44:07.065Z,98381.81
2022-10-06T14:46:35.740Z,98396.06
2022-10-06T14:49:07.756Z,98398.81
2022-10-06T14:51:37.227Z,98396.66
2022-10-06T14:54:07.931Z,98397.47
2022-10-06T14:56:39.120Z,98395.41
2022-10-06T15:03:29.575Z,98392.94
2022-10-06T15:06:19.406Z,98391.19
2022-10-06T15:08:53.030Z,98389.31
2022-10-06T15:11:26.369Z,98391.88
2022-10-06T15:13:57.351Z,98389.66
2022-10-06T15:16:29.665Z,98393.91
2022-10-06T15:19:00.424Z,98391.69
2022-10-06T15:21:31.392Z,98393.75
2022-10-06T15:24:02.000Z,98397.13
2022-10-06T15:26:50.269Z,98399.03
2022-10-06T15:29:19.989Z,98400.41
2022-10-06T15:31:53.031Z,98400.38
2022-10-06T15:34:24.371Z,98394.69
2022-10-06T15:36:54.594Z,98402.31
2022-10-06T15:39:25.607Z,98399.19
2022-10-06T15:41:55.859Z,98400.50
2022-10-06T15:44:25.104Z,98400.72
2022-10-06T15:46:56.501Z,98405.41
2022-10-06T15:49:26.965Z,98397.53
2022-10-06T15:51:59.889Z,98404.38
2022-10-06T15:54:30.517Z,98411.94
2022-10-06T15:57:02.515Z,98408.78
2022-10-06T15:59:32.630Z,98411.09
2022-10-06T16:02:04.101Z,98412.97
2022-10-06T16:04:46.719Z,98408.63
2022-10-06T16:07:18.690Z,98404.84
2022-10-06T16:09:49.080Z,98414.84
2022-10-06T16:12:23.490Z,98415.22
2022-10-06T16:14:53.990Z,98420.31
2022-10-06T16:17:23.350Z,98428.75
2022-10-06T16:19:52.956Z,98430.94
2022-10-06T16:22:22.219Z,98430.47
2022-10-06T16:24:51.908Z,98431.63
2022-10-06T16:27:22.164Z,98428.97
2022-10-06T16:29:51.895Z,98432.16
2022-10-06T16:32:20.680Z,98434.38
2022-10-06T16:34:50.828Z,98437.94
2022-10-06T16:37:19.426Z,98443.69
2022-10-06T16:39:48.038Z,98440.97
2022-10-06T16:42:18.187Z,98446.28
2022-10-06T16:44:48.493Z,98450.81
2022-10-06T16:47:17.618Z,98449.69
2022-10-06T16:49:46.198Z,98452.03
2022-10-06T16:52:15.186Z,98456.84
2022-10-06T16:54:43.798Z,98453.50
2022-10-06T16:57:12.620Z,98461.66
2022-10-06T16:59:45.850Z,98464.47
2022-10-06T17:02:18.045Z,98466.88
2022-10-06T17:04:46.703Z,98470.41
2022-10-06T17:07:15.085Z,98479.63
2022-10-06T17:10:01.511Z,98477.44
2022-10-06T17:12:31.856Z,98476.44
2022-10-06T17:14:59.906Z,98484.38
2022-10-06T17:17:29.706Z,98484.19
2022-10-06T17:19:59.073Z,98483.47
2022-10-06T17:22:27.490Z,98478.66
2022-10-06T17:24:55.914Z,98486.09
2022-10-06T17:27:28.952Z,98487.22
2022-10-06T17:29:57.622Z,98488.53
2022-10-06T17:32:26.369Z,98492.50
2022-10-06T17:34:56.871Z,98492.84
2022-10-06T17:37:25.942Z,98482.75
2022-10-06T17:39:55.048Z,98485.94
2022-10-06T17:42:23.305Z,98481.09
2022-10-06T17:44:53.306Z,98494.34
2022-10-06T17:47:21.535Z,98488.44
2022-10-06T17:49:50.700Z,98494.63
2022-10-06T17:52:24.063Z,98482.53
2022-10-06T17:54:54.494Z,98486.97
2022-10-06T17:57:22.817Z,98493.78
2022-10-06T17:59:52.361Z,98490.53
2022-10-06T18:02:21.114Z,98498.41
2022-10-06T18:04:50.138Z,98492.47
2022-10-06T18:07:22.374Z,98492.59
2022-10-06T18:10:04.823Z,98482.22
2022-10-06T18:12:39.001Z,98495.00
2022-10-06T18:15:12.574Z,98492.94
2022-10-06T18:17:42.056Z,98490.94
2022-10-06T18:20:12.018Z,98492.59
2022-10-06T18:22:42.416Z,98488.19
2022-10-06T18:25:16.990Z,98490.72
2022-10-06T18:27:47.515Z,98490.56
2022-10-06T18:30:16.407Z,98492.22
2022-10-06T18:38:26.630Z,98499.38
2022-10-06T18:40:58.212Z,98494.31
2022-10-06T18:43:27.696Z,98501.47
2022-10-06T18:46:14.835Z,98501.63
2022-10-06T18:48:56.394Z,98507.91
2022-10-06T18:51:28.493Z,98514.00
2022-10-06T18:53:59.259Z,98515.22
2022-10-06T18:56:31.368Z,98509.13
2022-10-06T18:59:00.788Z,98518.44
2022-10-06T19:01:31.363Z,98510.94
2022-10-06T19:04:03.645Z,98519.59
2022-10-06T19:06:34.751Z,98520.69
2022-10-06T19:09:07.523Z,98514.59
2022-10-06T19:11:46.066Z,98518.56
2022-10-06T19:14:15.923Z,98516.06
2022-10-06T19:16:45.667Z,98516.97
2022-10-06T19:19:17.498Z,98525.81
2022-10-06T19:21:49.379Z,98504.19
2022-10-06T19:24:22.129Z,98511.16
2022-10-06T19:26:52.703Z,98515.53
2022-10-06T19:29:23.779Z,98513.88
2022-10-06T19:31:55.744Z,98519.28
2022-10-06T19:34:25.782Z,98521.31
2022-10-06T19:36:54.495Z,98517.81
2022-10-06T19:39:26.409Z,98523.91
2022-10-06T19:42:12.766Z,98524.75
2022-10-06T19:44:44.001Z,98519.25
2022-10-06T19:47:16.304Z,98526.97
2022-10-06T19:49:46.558Z,98519.09
2022-10-06T19:52:17.164Z,98524.22
2022-10-06T19:54:47.831Z,98531.09
2022-10-06T19:57:17.081Z,98534.59
2022-10-06T19:59:47.004Z,98533.75
2022-10-06T20:02:16.147Z,98531.16
2022-10-06T20:04:46.206Z,98527.75
2022-10-06T20:07:14.578Z,98534.63
2022-10-06T20:09:44.341Z,98528.56
2022-10-06T20:12:19.787Z,98533.84
2022-10-06T20:14:53.913Z,98536.44
2022-10-06T20:17:23.842Z,98529.66
2022-10-06T20:19:57.848Z,98529.66
2022-10-06T20:22:26.775Z,98531.47
2022-10-06T20:24:57.403Z,98536.59
2022-10-06T20:27:27.479Z,98534.06
2022-10-06T20:29:57.694Z,98528.88
2022-10-06T20:32:27.464Z,98532.41
2022-10-06T20:34:58.658Z,98538.59
2022-10-06T20:37:28.623Z,98543.81
2022-10-06T20:40:15.383Z,98542.13
2022-10-06T20:42:49.318Z,98530.94
2022-10-06T20:45:18.667Z,98537.06
2022-10-06T20:47:48.076Z,98541.38
2022-10-06T20:50:18.884Z,98538.72
2022-10-06T20:52:48.866Z,98539.59
2022-10-06T20:55:17.774Z,98538.75
2022-10-06T20:57:49.681Z,98538.66
2022-10-06T21:00:18.829Z,98540.44
2022-10-06T21:02:48.614Z,98535.38
2022-10-06T21:05:18.401Z,98537.91
2022-10-06T21:07:47.590Z,98531.03
2022-10-06T21:10:16.107Z,98532.84
2022-10-06T21:12:46.451Z,98532.00
2022-10-06T21:15:16.392Z,98531.94
2022-10-06T21:17:48.605Z,98526.81
2022-10-06T21:20:17.679Z,98529.34
2022-10-06T21:22:46.320Z,98529.41
2022-10-06T21:25:15.297Z,98530.25
2022-10-06T21:27:45.745Z,98519.97
2022-10-06T21:30:17.835Z,98519.88
2022-10-06T21:32:48.413Z,98519.97
2022-10-06T21:35:18.528Z,98515.75
2022-10-06T21:37:47.948Z,98515.75
2022-10-06T21:40:17.727Z,98522.69
2022-10-06T21:42:47.494Z,98519.28
2022-10-06T21:45:20.958Z,98520.97
2022-10-06T21:47:52.457Z,98514.94
2022-10-06T21:50:22.416Z,98513.34
2022-10-06T21:52:51.280Z,98511.59
2022-10-06T21:55:20.590Z,98509.97
2022-10-06T21:57:50.533Z,98503.03
2022-10-06T22:00:22.721Z,98503.94
2022-10-06T22:02:51.697Z,98503.94
2022-10-06T22:05:20.632Z,98501.41
2022-10-06T22:07:49.811Z,98504.91
2022-10-06T22:10:20.206Z,98504.91
2022-10-06T22:12:49.407Z,98509.19
2022-10-06T22:15:18.617Z,98511.72
2022-10-06T22:17:51.715Z,98503.03
2022-10-06T22:20:22.477Z,98500.47
2022-10-06T22:22:53.263Z,98500.47
2022-10-06T22:25:23.826Z,98503.06
2022-10-06T22:27:53.801Z,98491.84
2022-10-06T22:30:22.553Z,98497.03
2022-10-06T22:32:54.335Z,98493.63
2022-10-06T22:35:23.479Z,98491.84
2022-10-06T22:37:53.502Z,98490.09
2022-10-06T22:40:22.861Z,98489.25
2022-10-06T22:42:52.135Z,98488.41
2022-10-06T22:45:21.126Z,98482.38
2022-10-06T22:47:50.212Z,98487.56
2022-10-06T22:50:20.559Z,98487.56
2022-10-06T22:52:49.915Z,98492.66
2022-10-06T22:55:19.292Z,98485.81
2022-10-06T22:57:48.275Z,98492.75
2022-10-06T23:00:18.308Z,98483.19
2022-10-06T23:02:47.408Z,98484.13
2022-10-06T23:05:16.217Z,98488.41
2022-10-06T23:07:47.520Z,98482.34
2022-10-06T23:10:16.726Z,98474.50
2022-10-06T23:12:47.700Z,98476.19
2022-10-06T23:15:17.677Z,98482.34
2022-10-06T23:17:48.668Z,98472.75
2022-10-06T23:20:19.073Z,98478.78
2022-10-06T23:22:49.990Z,98479.69
2022-10-06T23:25:23.707Z,98475.47
2022-10-06T23:27:55.729Z,98479.72
2022-10-06T23:30:25.712Z,98484.91
2022-10-06T23:32:55.099Z,98476.28
2022-10-06T23:35:25.477Z,98482.34
2022-10-06T23:37:56.658Z,98470.25
2022-10-06T23:40:26.153Z,98471.91
2022-10-06T23:42:55.778Z,98475.38
2022-10-06T23:45:25.786Z,98480.56
2022-10-06T23:47:54.687Z,98475.47
2022-10-06T23:50:24.021Z,98478.00
2022-10-06T23:52:52.857Z,98480.56
2022-10-06T23:55:22.781Z,98473.69
2022-10-06T23:57:51.805Z,98477.16
